Time;durP1;ratioP1;P1;durP2;ratioP2;P2;SDS_P1;SDS_P2;PMS_P1;PMS_P2;Temp;Humidity;BMP_temperature;BMP_pressure;BME280_temperature;BME280_humidity;BME280_pressure;Samples;Min_cycle;Max_cycle;Signal;HPM_P1;HPM_P2
2023/04/05 00:00:47;;;;;;;9.35;6.18;;;;;;;1.33;100.00;99773.28;5138521;27;20418;-59
2023/04/05 00:03:13;;;;;;;8.82;5.80;;;;;;;1.21;100.00;99770.16;5138810;28;20078;-58
2023/04/05 00:05:39;;;;;;;10.88;6.18;;;;;;;1.21;100.00;99774.75;5138541;27;20138;-60
2023/04/05 00:08:12;;;;;;;8.35;6.05;;;;;;;1.31;100.00;99778.16;5138478;27;20054;-63
2023/04/05 00:10:38;;;;;;;9.57;6.43;;;;;;;1.29;100.00;99776.81;5138889;28;20051;-63
2023/04/05 00:13:05;;;;;;;14.55;6.78;;;;;;;1.24;100.00;99768.78;5138865;27;20047;-62
2023/04/05 00:15:31;;;;;;;10.55;5.93;;;;;;;1.20;100.00;99776.66;5138987;28;20055;-63
2023/04/05 00:17:58;;;;;;;11.50;6.20;;;;;;;1.28;100.00;99791.44;5138468;28;20053;-59
2023/04/05 00:20:25;;;;;;;8.63;5.72;;;;;;;1.18;100.00;99776.94;5138598;27;20057;-55
2023/04/05 00:22:50;;;;;;;10.95;7.07;;;;;;;1.16;100.00;99786.41;5138219;28;20146;-61
2023/04/05 00:25:17;;;;;;;10.70;5.38;;;;;;;1.11;100.00;99786.47;5138699;28;20078;-63
2023/04/05 00:27:43;;;;;;;12.13;5.78;;;;;;;1.07;100.00;99788.16;5138170;28;20456;-62
2023/04/05 00:30:11;;;;;;;10.20;5.55;;;;;;;1.00;100.00;99780.41;5138624;27;20051;-62
2023/04/05 00:32:37;;;;;;;13.98;5.57;;;;;;;1.10;100.00;99791.09;5138451;27;20079;-56
2023/04/05 00:35:03;;;;;;;10.00;4.90;;;;;;;1.07;100.00;99790.84;5138292;28;20133;-60
2023/04/05 00:37:29;;;;;;;9.32;5.20;;;;;;;0.76;100.00;99777.66;5138343;28;20141;-59
2023/04/05 00:39:56;;;;;;;10.40;5.43;;;;;;;0.76;100.00;99768.75;5138372;28;20065;-58
2023/04/05 00:42:22;;;;;;;8.20;4.80;;;;;;;0.80;100.00;99784.09;5138310;27;20047;-54
2023/04/05 00:44:48;;;;;;;5.88;4.53;;;;;;;0.81;100.00;99782.19;5138043;27;20337;-60
2023/04/05 00:47:14;;;;;;;9.25;4.30;;;;;;;0.80;100.00;99777.88;5138308;27;20047;-63
2023/04/05 00:49:41;;;;;;;7.28;4.32;;;;;;;0.73;100.00;99782.81;5137939;28;20147;-64
2023/04/05 00:52:07;;;;;;;7.95;4.25;;;;;;;0.79;100.00;99787.88;5138449;27;20138;-62
2023/04/05 00:54:34;;;;;;;9.27;5.10;;;;;;;0.79;100.00;99781.66;5137866;28;20161;-63
2023/04/05 00:56:59;;;;;;;12.02;4.85;;;;;;;0.67;100.00;99774.78;5137685;28;20137;-64
2023/04/05 00:59:27;;;;;;;10.48;5.35;;;;;;;0.71;100.00;99777.72;5137520;28;20058;-61
2023/04/05 01:01:59;;;;;;;7.80;4.72;;;;;;;0.73;100.00;99785.50;5137660;28;20062;-57
2023/04/05 01:04:29;;;;;;;6.85;4.68;;;;;;;0.80;100.00;99781.41;5138002;27;20051;-60
2023/04/05 01:07:06;;;;;;;7.32;4.78;;;;;;;0.74;100.00;99779.03;5137616;27;20491;-61
2023/04/05 01:09:39;;;;;;;8.15;5.03;;;;;;;0.52;100.00;99788.38;5138019;27;20370;-65
2023/04/05 01:12:08;;;;;;;8.73;5.35;;;;;;;0.69;100.00;99788.78;5137675;28;20090;-54
2023/04/05 01:14:43;;;;;;;7.30;4.55;;;;;;;0.74;100.00;99782.53;5137822;27;20444;-61
2023/04/05 01:17:09;;;;;;;6.88;4.22;;;;;;;0.77;100.00;99784.66;5137570;28;20082;-60
2023/04/05 01:19:40;;;;;;;7.20;4.97;;;;;;;0.66;100.00;99775.03;5137866;27;20093;-64
2023/04/05 01:22:40;;;;;;;6.93;4.82;;;;;;;0.72;100.00;99787.41;5137755;27;20111;-59
2023/04/05 01:25:27;;;;;;;7.68;4.00;;;;;;;0.79;100.00;99789.78;5128626;27;20079;-61
2023/04/05 01:28:10;;;;;;;8.48;4.55;;;;;;;0.63;100.00;99773.75;5137687;27;20115;-63
2023/04/05 01:30:39;;;;;;;8.48;3.95;;;;;;;0.56;100.00;99762.44;5137349;27;20051;-60
2023/04/05 01:33:13;;;;;;;5.45;4.05;;;;;;;0.61;100.00;99769.72;5137728;27;20047;-58
2023/04/05 01:35:43;;;;;;;;;;;;;;;0.61;100.00;99767.81;5137885;28;20162;-60
2023/04/05 01:38:15;;;;;;;5.97;4.35;;;;;;;0.62;100.00;99771.31;5137398;28;19923;-65
2023/04/05 01:40:42;;;;;;;6.43;3.75;;;;;;;0.60;100.00;99774.31;5137464;28;20055;-63
2023/04/05 01:43:12;;;;;;;7.18;4.70;;;;;;;0.49;100.00;99764.66;5137301;27;20061;-65
2023/04/05 01:45:39;;;;;;;6.47;4.28;;;;;;;0.56;100.00;99767.03;5137467;28;20142;-63
2023/04/05 01:48:06;;;;;;;6.50;4.18;;;;;;;0.44;100.00;99762.84;5137213;28;20047;-59
2023/04/05 01:50:32;;;;;;;7.60;4.32;;;;;;;0.51;100.00;99765.22;5137379;28;20051;-62
2023/04/05 01:52:57;;;;;;;7.50;4.57;;;;;;;0.55;100.00;99768.94;5136989;27;20062;-59
2023/04/05 01:55:23;;;;;;;7.75;4.95;;;;;;;0.48;100.00;99765.78;5137478;28;20134;-61
2023/04/05 01:57:50;;;;;;;9.63;5.43;;;;;;;0.43;100.00;99763.94;5136795;27;20057;-55
2023/04/05 02:00:17;;;;;;;10.20;5.50;;;;;;;0.50;100.00;99769.00;5136811;28;20079;-64
2023/04/05 02:02:43;;;;;;;9.75;5.22;;;;;;;0.59;100.00;99771.88;5137170;28;20142;-55
2023/04/05 02:05:09;;;;;;;10.82;5.80;;;;;;;0.60;100.00;99779.69;5136768;27;20443;-56
2023/04/05 02:07:35;;;;;;;9.98;5.63;;;;;;;0.75;100.00;99786.84;5136973;28;20051;-58
2023/04/05 02:10:01;;;;;;;7.78;5.03;;;;;;;0.66;100.00;99780.44;5136944;28;20051;-59
2023/04/05 02:12:27;;;;;;;13.13;6.18;;;;;;;0.66;100.00;99781.25;5137157;28;20059;-63
2023/04/05 02:14:53;;;;;;;13.98;7.03;;;;;;;0.60;100.00;99770.78;5136647;28;20051;-64
2023/04/05 02:17:20;;;;;;;10.10;6.85;;;;;;;0.51;100.00;99770.59;5137115;27;20051;-62
2023/04/05 02:19:48;;;;;;;10.00;6.18;;;;;;;0.59;100.00;99766.47;5136567;28;20435;-62
2023/04/05 02:22:14;;;;;;;12.55;6.55;;;;;;;0.62;100.00;99776.69;5137150;27;20062;-55
2023/04/05 02:24:40;;;;;;;10.52;7.10;;;;;;;0.67;100.00;99765.88;5136561;28;20051;-62
2023/04/05 02:27:06;;;;;;;12.90;6.93;;;;;;;0.56;100.00;99767.84;5137064;27;20066;-63
2023/04/05 02:29:33;;;;;;;10.73;6.32;;;;;;;0.51;100.00;99764.41;5136816;27;20059;-63
2023/04/05 02:31:59;;;;;;;10.32;6.03;;;;;;;0.55;100.00;99770.84;5136727;28;20062;-57
2023/04/05 02:34:26;;;;;;;15.93;6.07;;;;;;;0.58;100.00;99770.28;5136760;27;20047;-58
2023/04/05 02:36:53;;;;;;;11.00;6.50;;;;;;;0.45;100.00;99785.22;5138459;27;20111;-57
2023/04/05 02:39:19;;;;;;;12.40;7.05;;;;;;;0.50;100.00;99787.88;5140091;27;20134;-64
2023/04/05 02:41:45;;;;;;;12.57;7.18;;;;;;;0.50;100.00;99792.44;5140101;27;20058;-61
2023/04/05 02:44:12;;;;;;;9.30;5.90;;;;;;;0.61;100.00;99794.78;5140326;28;20137;-64
2023/04/05 02:46:38;;;;;;;16.38;7.03;;;;;;;0.63;100.00;99783.69;5139899;28;20061;-61
2023/04/05 02:49:04;;;;;;;14.70;6.55;;;;;;;0.63;100.00;99781.84;5140495;27;20138;-53
2023/04/05 02:51:33;;;;;;;11.35;6.60;;;;;;;0.68;100.00;99778.28;5139680;28;20051;-61
2023/04/05 02:54:00;;;;;;;10.48;6.25;;;;;;;0.69;100.00;99777.19;5140325;27;20087;-58
2023/04/05 02:56:26;;;;;;;10.45;5.93;;;;;;;0.64;100.00;99775.34;5139667;28;20065;-58
2023/04/05 02:58:52;;;;;;;10.57;6.10;;;;;;;0.73;100.00;99786.31;5139622;27;20043;-54
2023/04/05 03:01:19;;;;;;;12.00;6.85;;;;;;;0.66;100.00;99783.13;5139418;27;20047;-55
2023/04/05 03:03:45;;;;;;;14.93;7.10;;;;;;;0.77;100.00;99784.66;5139781;28;20047;-58
2023/04/05 03:06:10;;;;;;;11.32;6.22;;;;;;;0.79;100.00;99782.47;5139828;27;20158;-60
2023/04/05 03:08:37;;;;;;;12.38;7.05;;;;;;;0.72;100.00;99798.19;5139457;28;20495;-62
2023/04/05 03:11:05;;;;;;;12.25;6.72;;;;;;;0.80;100.00;99803.00;5139920;28;20093;-62
2023/04/05 03:13:31;;;;;;;11.57;6.72;;;;;;;0.68;100.00;99792.56;5139376;27;20301;-57
2023/04/05 03:15:57;;;;;;;10.68;6.18;;;;;;;0.74;100.00;99800.63;5140043;28;20141;-57
2023/04/05 03:18:24;;;;;;;14.95;8.18;;;;;;;0.68;100.00;99792.56;5139439;28;20404;-61
2023/04/05 03:20:55;;;;;;;16.33;8.43;;;;;;;0.76;100.00;99799.22;5139706;27;20066;-59
2023/04/05 03:23:25;;;;;;;12.27;6.28;;;;;;;0.55;100.00;99804.00;5139177;27;20043;-54
2023/04/05 03:25:53;;;;;;;13.85;6.65;;;;;;;0.66;100.00;99815.53;5139194;27;20047;-64
2023/04/05 03:28:20;;;;;;;12.77;7.30;;;;;;;0.60;100.00;99800.44;5139516;27;20082;-56
2023/04/05 03:30:46;;;;;;;11.07;7.85;;;;;;;0.65;100.00;99805.81;5139325;28;20196;-59
2023/04/05 03:33:12;;;;;;;14.15;7.32;;;;;;;0.70;100.00;99812.00;5139400;28;20134;-57
2023/04/05 03:35:37;;;;;;;12.38;6.93;;;;;;;0.84;100.00;99812.13;5139191;27;20069;-61
2023/04/05 03:38:03;;;;;;;13.38;6.78;;;;;;;0.86;100.00;99807.22;5139302;27;20336;-64
2023/04/05 03:40:29;;;;;;;10.10;5.70;;;;;;;0.67;100.00;99809.84;5138864;28;20146;-64
2023/04/05 03:42:55;;;;;;;10.18;5.35;;;;;;;0.58;100.00;99810.75;5139361;27;20051;-64
2023/04/05 03:45:22;;;;;;;7.68;5.00;;;;;;;0.70;100.00;99800.41;5138943;28;20050;-62
2023/04/05 03:47:48;;;;;;;9.15;5.88;;;;;;;0.63;100.00;99800.72;5139000;27;20138;-63
2023/04/05 03:50:14;;;;;;;12.32;7.13;;;;;;;0.63;100.00;99800.72;5138823;27;20069;-61
2023/04/05 03:52:40;;;;;;;13.20;6.55;;;;;;;0.77;100.00;99805.44;5139257;27;20360;-57
2023/04/05 03:55:07;;;;;;;12.88;7.35;;;;;;;0.66;100.00;99802.81;5139012;27;20047;-64
2023/04/05 03:57:33;;;;;;;12.05;6.43;;;;;;;0.60;100.00;99798.59;5138929;28;20318;-63
2023/04/05 03:59:59;;;;;;;11.27;6.50;;;;;;;0.58;100.00;99803.44;5139135;28;20055;-57
2023/04/05 04:02:25;;;;;;;14.05;6.68;;;;;;;0.58;100.00;99805.34;5138848;27;20111;-58
2023/04/05 04:04:52;;;;;;;9.98;5.85;;;;;;;0.66;100.00;99805.53;5138696;27;20134;-56
2023/04/05 04:07:18;;;;;;;10.55;5.53;;;;;;;0.42;100.00;99797.38;5138771;28;20055;-58
2023/04/05 04:09:44;;;;;;;11.13;6.35;;;;;;;0.52;100.00;99798.38;5139184;27;20101;-58
2023/04/05 04:12:10;;;;;;;12.10;6.38;;;;;;;0.40;100.00;99796.03;5138533;27;20047;-61
2023/04/05 04:14:36;;;;;;;14.63;6.13;;;;;;;0.52;100.00;99799.19;5138610;27;20482;-62
2023/04/05 04:17:02;;;;;;;10.88;6.13;;;;;;;0.34;100.00;99799.88;5138361;28;20061;-65
2023/04/05 04:19:29;;;;;;;10.80;5.20;;;;;;;0.57;100.00;99801.84;5138721;27;20401;-57
2023/04/05 04:21:54;;;;;;;10.48;5.38;;;;;;;0.68;100.00;99789.88;5138140;28;20058;-56
2023/04/05 04:24:20;;;;;;;11.07;5.47;;;;;;;0.76;100.00;99793.84;5138455;28;20051;-56
2023/04/05 04:26:47;;;;;;;11.88;5.35;;;;;;;0.79;100.00;99787.06;5138558;28;20057;-63
2023/04/05 04:29:15;;;;;;;8.38;4.05;;;;;;;0.59;100.00;99771.88;5138175;28;20138;-64
2023/04/05 04:31:44;;;;;;;7.78;5.05;;;;;;;0.66;100.00;99775.03;5138399;27;20058;-64
2023/04/05 04:34:10;;;;;;;11.80;5.53;;;;;;;0.67;100.00;99771.28;5138137;28;20047;-62
2023/04/05 04:36:38;;;;;;;11.23;5.38;;;;;;;0.67;100.00;99769.38;5138430;27;20146;-55
2023/04/05 04:39:04;;;;;;;7.93;5.00;;;;;;;0.82;100.00;99775.72;5138113;28;20389;-64
2023/04/05 04:41:32;;;;;;;8.45;5.63;;;;;;;0.78;100.00;99774.69;5138316;28;20061;-62
2023/04/05 04:44:01;;;;;;;8.98;4.68;;;;;;;1.02;100.00;99780.09;5137800;27;20054;-59
2023/04/05 04:46:29;;;;;;;10.60;5.03;;;;;;;0.87;100.00;99771.06;5138425;28;20481;-59
2023/04/05 04:48:56;;;;;;;6.93;4.75;;;;;;;0.93;100.00;99767.22;5139635;28;20047;-57
2023/04/05 04:51:22;;;;;;;7.63;5.07;;;;;;;0.99;100.00;99759.06;5138355;28;20138;-63
2023/04/05 04:53:48;;;;;;;17.98;5.93;;;;;;;0.95;100.00;99753.44;5138206;27;20141;-63
2023/04/05 04:56:14;;;;;;;11.82;5.55;;;;;;;0.98;100.00;99752.06;5137845;28;20061;-64
2023/04/05 04:58:40;;;;;;;9.98;5.72;;;;;;;0.82;100.00;99751.41;5137062;27;20142;-63
2023/04/05 05:01:08;;;;;;;9.52;5.78;;;;;;;0.76;100.00;99753.34;5137634;27;20055;-62
2023/04/05 05:03:34;;;;;;;9.57;5.20;;;;;;;0.75;100.00;99761.75;5137755;28;20054;-64
2023/04/05 05:06:01;;;;;;;7.43;4.78;;;;;;;0.81;100.00;99764.09;5137407;27;20054;-63
2023/04/05 05:08:27;;;;;;;9.30;5.60;;;;;;;0.93;100.00;99767.22;5137637;27;20043;-64
2023/04/05 05:10:53;;;;;;;9.77;5.43;;;;;;;0.96;100.00;99762.34;5137568;27;20058;-61
2023/04/05 05:13:19;;;;;;;10.50;4.78;;;;;;;1.04;100.00;99778.72;5138075;27;20051;-62
2023/04/05 05:15:47;;;;;;;10.00;5.90;;;;;;;0.97;100.00;99767.47;5137927;28;20541;-62
2023/04/05 05:18:13;;;;;;;8.18;5.57;;;;;;;1.32;100.00;99771.63;5137774;28;20046;-69
2023/04/05 05:20:40;;;;;;;8.10;4.95;;;;;;;1.46;100.00;99758.22;5137647;27;20047;-74
2023/04/05 05:23:06;;;;;;;12.77;6.40;;;;;;;1.37;100.00;99722.16;5137601;28;20051;-69
2023/04/05 05:25:31;;;;;;;8.00;5.75;;;;;;;1.47;100.00;99705.03;5137341;28;20439;-70
2023/04/05 05:27:58;;;;;;;7.07;5.15;;;;;;;1.52;100.00;99686.03;5137344;28;20057;-68
2023/04/05 05:30:25;;;;;;;10.15;5.50;;;;;;;1.64;100.00;99665.56;5137489;27;20153;-62
2023/04/05 05:32:52;;;;;;;10.15;5.57;;;;;;;1.77;100.00;99642.41;5137186;28;20054;-66
2023/04/05 05:35:17;;;;;;;9.40;5.38;;;;;;;2.08;100.00;99623.75;5137275;27;20058;-65
2023/04/05 05:37:43;;;;;;;9.93;5.30;;;;;;;1.98;100.00;99559.03;5137091;28;20051;-60
2023/04/05 05:40:12;;;;;;;9.48;5.63;;;;;;;2.17;100.00;99514.91;5137610;28;20142;-60
2023/04/05 05:42:37;;;;;;;8.80;5.03;;;;;;;2.47;100.00;99478.31;5135798;28;20340;-62
2023/04/05 05:45:05;;;;;;;8.20;5.45;;;;;;;2.51;100.00;99393.47;5137163;28;20058;-63
2023/04/05 05:47:32;;;;;;;12.02;4.10;;;;;;;2.83;100.00;99334.78;5135313;27;20090;-67
2023/04/05 05:49:57;;;;;;;5.70;3.85;;;;;;;2.76;100.00;99221.50;5136187;28;20113;-61
2023/04/05 05:52:24;;;;;;;6.57;4.22;;;;;;;2.91;100.00;99141.78;5137038;28;20397;-60
2023/04/05 05:54:50;;;;;;;6.40;4.22;;;;;;;2.94;100.00;99091.63;5136903;28;20059;-63
2023/04/05 05:57:16;;;;;;;7.10;4.40;;;;;;;3.04;100.00;99037.16;5136987;27;20047;-59
2023/04/05 05:59:42;;;;;;;5.72;4.35;;;;;;;2.69;100.00;98947.78;5136851;28;20058;-59
2023/04/05 06:02:09;;;;;;;5.18;3.90;;;;;;;2.90;100.00;98963.38;5137160;27;20055;-60
2023/04/05 06:04:36;;;;;;;6.10;4.22;;;;;;;2.64;100.00;98999.38;5136681;27;20083;-58
2023/04/05 06:07:03;;;;;;;5.90;4.07;;;;;;;2.77;100.00;99011.97;5137166;27;20058;-63
2023/04/05 06:09:29;;;;;;;4.18;3.38;;;;;;;2.92;100.00;98959.25;5136346;27;20437;-65
2023/04/05 06:11:55;;;;;;;7.00;4.45;;;;;;;2.96;100.00;98926.91;5140376;27;20066;-71
2023/04/05 06:14:21;;;;;;;4.72;3.63;;;;;;;3.00;100.00;98895.34;5140220;28;20416;-69
2023/04/05 06:16:47;;;;;;;10.52;4.55;;;;;;;2.87;100.00;98889.03;5140481;27;20093;-59
2023/04/05 06:19:14;;;;;;;6.10;3.20;;;;;;;2.91;100.00;98918.97;5140422;27;20047;-63
2023/04/05 06:21:40;;;;;;;10.27;4.15;;;;;;;2.97;100.00;98899.53;5139818;27;20073;-60
2023/04/05 06:24:06;;;;;;;4.88;3.00;;;;;;;2.95;100.00;98855.72;5140544;27;20047;-58
2023/04/05 06:26:32;;;;;;;7.03;3.28;;;;;;;3.24;100.00;98889.44;5140097;28;20142;-63
2023/04/05 06:28:58;;;;;;;4.97;3.05;;;;;;;2.96;100.00;98813.97;5140057;27;20145;-61
2023/04/05 06:31:30;;;;;;;5.05;2.55;;;;;;;3.01;100.00;98813.81;5139901;27;20055;-57
2023/04/05 06:33:56;;;;;;;8.32;2.88;;;;;;;3.18;100.00;98809.47;5140129;28;20417;-63
2023/04/05 06:36:23;;;;;;;6.80;3.72;;;;;;;2.99;100.00;98793.56;5139686;27;20062;-60
2023/04/05 06:38:49;;;;;;;6.78;3.28;;;;;;;2.87;100.00;98748.25;5140050;28;20134;-63
2023/04/05 06:41:15;;;;;;;5.45;3.75;;;;;;;2.86;100.00;98776.41;5139557;28;20424;-64
2023/04/05 06:43:41;;;;;;;5.95;3.42;;;;;;;3.08;100.00;98766.47;5139978;27;20111;-70
2023/04/05 06:46:10;;;;;;;12.80;3.72;;;;;;;2.85;100.00;98784.88;5139812;28;20054;-70
2023/04/05 06:48:36;;;;;;;5.13;2.90;;;;;;;2.73;100.00;98799.06;5139718;28;20087;-62
2023/04/05 06:51:03;;;;;;;4.30;3.08;;;;;;;2.69;100.00;98877.41;5139827;27;20097;-56
2023/04/05 06:53:30;;;;;;;6.22;3.30;;;;;;;2.67;100.00;98906.72;5139704;28;20057;-64
2023/04/05 06:55:57;;;;;;;5.13;3.15;;;;;;;2.85;100.00;98887.75;5139917;27;20051;-66
2023/04/05 06:58:23;;;;;;;4.35;3.13;;;;;;;2.94;100.00;98878.50;5139381;28;20119;-66
2023/04/05 07:00:49;;;;;;;5.30;3.33;;;;;;;3.03;100.00;98887.41;5139415;28;20062;-59
2023/04/05 07:03:16;;;;;;;5.28;3.10;;;;;;;2.67;100.00;98901.31;5139290;28;20051;-66
2023/04/05 07:05:49;;;;;;;7.22;3.10;;;;;;;2.92;100.00;99020.72;5139678;27;20142;-61
2023/04/05 07:08:17;;;;;;;8.57;2.78;;;;;;;2.55;100.00;99010.16;5139258;28;20062;-69
2023/04/05 07:10:43;;;;;;;3.08;2.10;;;;;;;2.56;100.00;99063.16;5139546;28;20141;-68
2023/04/05 07:13:09;;;;;;;2.22;1.95;;;;;;;2.58;100.00;99101.56;5139479;28;20047;-62
2023/04/05 07:15:35;;;;;;;6.53;2.10;;;;;;;2.59;100.00;99124.00;5139513;28;20147;-67
2023/04/05 07:18:01;;;;;;;2.60;2.15;;;;;;;2.93;100.00;99146.88;5139313;27;20079;-66
2023/04/05 07:20:27;;;;;;;2.42;2.00;;;;;;;2.81;100.00;99055.44;5137986;27;20063;-67
2023/04/05 07:22:53;;;;;;;2.33;1.80;;;;;;;2.44;100.00;99052.16;5138604;27;20071;-61
2023/04/05 07:25:19;;;;;;;1.40;1.30;;;;;;;2.40;100.00;99126.13;5138904;27;20047;-60
2023/04/05 07:27:45;;;;;;;1.45;1.33;;;;;;;2.80;100.00;99165.66;5139190;27;20093;-57
2023/04/05 07:30:12;;;;;;;1.55;1.45;;;;;;;2.50;100.00;99067.16;5138959;28;20133;-59
2023/04/05 07:32:38;;;;;;;1.33;1.23;;;;;;;2.63;100.00;99059.22;5139269;27;20051;-66
2023/04/05 07:35:05;;;;;;;1.30;1.20;;;;;;;2.58;100.00;98985.19;5138892;28;20078;-67
2023/04/05 07:37:31;;;;;;;1.98;1.33;;;;;;;2.66;100.00;98991.72;5139266;27;20047;-58
2023/04/05 07:39:57;;;;;;;2.80;1.00;;;;;;;2.95;100.00;99017.41;5138670;28;20077;-58
2023/04/05 07:42:24;;;;;;;1.83;1.60;;;;;;;2.80;100.00;98984.25;5138923;27;20057;-60
2023/04/05 07:44:50;;;;;;;1.80;1.67;;;;;;;3.35;100.00;99001.75;5139130;27;20134;-61
2023/04/05 07:47:16;;;;;;;1.50;1.40;;;;;;;3.42;100.00;98937.03;5138738;28;20142;-61
2023/04/05 07:49:42;;;;;;;1.38;1.17;;;;;;;3.47;100.00;98828.47;5139040;27;20047;-62
2023/04/05 07:52:08;;;;;;;1.95;1.45;;;;;;;3.11;100.00;98782.88;5138623;28;20091;-65
2023/04/05 07:54:35;;;;;;;2.45;1.75;;;;;;;3.09;100.00;98854.72;5138824;27;20055;-66
2023/04/05 07:57:01;;;;;;;5.15;2.10;;;;;;;3.06;100.00;98839.91;5138488;28;20047;-66
2023/04/05 07:59:27;;;;;;;2.00;1.38;;;;;;;3.00;100.00;98836.59;5138757;27;20134;-59
2023/04/05 08:01:53;;;;;;;1.80;1.42;;;;;;;3.19;100.00;98887.69;5138147;27;20417;-62
2023/04/05 08:04:19;;;;;;;6.53;2.08;;;;;;;3.32;100.00;98814.66;5138692;28;20159;-58
2023/04/05 08:06:46;;;;;;;2.25;1.65;;;;;;;3.34;100.00;98774.50;5138134;28;20084;-61
2023/04/05 08:09:12;;;;;;;1.58;1.30;;;;;;;2.95;100.00;98785.31;5138641;27;20290;-58
2023/04/05 08:11:38;;;;;;;4.07;1.60;;;;;;;3.04;100.00;98758.22;5138358;28;20203;-60
2023/04/05 08:14:04;;;;;;;2.50;1.60;;;;;;;3.06;100.00;98764.06;5138471;27;20111;-61
2023/04/05 08:16:30;;;;;;;2.38;1.50;;;;;;;3.23;100.00;98829.03;5139254;28;20337;-59
2023/04/05 08:18:56;;;;;;;1.52;1.42;;;;;;;3.38;100.00;98816.06;5141341;28;20051;-58
2023/04/05 08:21:23;;;;;;;1.40;1.20;;;;;;;3.07;100.00;98749.44;5139392;27;20141;-57
2023/04/05 08:23:49;;;;;;;2.00;1.70;;;;;;;2.98;100.00;98767.63;5137988;28;20047;-63
2023/04/05 08:26:15;;;;;;;1.67;1.58;;;;;;;3.21;100.00;98844.81;5138177;28;20298;-62
2023/04/05 08:28:41;;;;;;;1.80;1.70;;;;;;;3.58;100.00;98890.44;5138062;28;20058;-66
2023/04/05 08:31:07;;;;;;;1.27;1.13;;;;;;;3.55;100.00;98840.38;5138591;27;20354;-67
2023/04/05 08:33:33;;;;;;;2.08;1.88;;;;;;;3.82;100.00;98805.78;5136767;27;20054;-66
2023/04/05 08:36:04;;;;;;;1.83;1.52;;;;;;;4.30;100.00;98732.03;5138115;28;20101;-61
2023/04/05 08:38:30;;;;;;;1.65;1.27;;;;;;;4.17;100.00;98676.91;5137832;28;20074;-67
2023/04/05 08:41:06;;;;;;;1.20;1.10;;;;;;;3.99;100.00;98621.25;5137764;28;20058;-62
2023/04/05 08:43:43;;;;;;;1.05;0.98;;;;;;;3.96;100.00;98554.09;5138155;27;20393;-69
2023/04/05 08:46:14;;;;;;;1.95;1.45;;;;;;;3.86;100.00;98557.25;5137850;27;20408;-60
2023/04/05 08:48:41;;;;;;;1.00;1.00;;;;;;;3.68;100.00;98572.91;5137837;28;20328;-61
2023/04/05 08:51:08;;;;;;;1.40;1.30;;;;;;;3.84;100.00;98584.72;5137463;28;20491;-60
2023/04/05 08:53:34;;;;;;;1.20;1.10;;;;;;;3.66;100.00;98630.16;5137821;28;20332;-66
2023/04/05 08:56:03;;;;;;;3.35;1.63;;;;;;;3.63;100.00;98638.97;5137349;28;20047;-67
2023/04/05 08:58:32;;;;;;;3.03;1.35;;;;;;;3.58;100.00;98671.69;5138220;28;20046;-64
2023/04/05 09:01:00;;;;;;;5.72;1.60;;;;;;;3.60;100.00;98691.13;5137093;27;20059;-63
2023/04/05 09:03:29;;;;;;;2.33;1.20;;;;;;;3.65;100.00;98638.63;5137618;28;20053;-60
2023/04/05 09:05:58;;;;;;;1.10;1.10;;;;;;;3.46;100.00;98660.75;5137433;28;20046;-63
2023/04/05 09:08:25;;;;;;;1.30;1.20;;;;;;;3.52;100.00;98651.31;5137588;28;20043;-59
2023/04/05 09:10:51;;;;;;;1.20;1.10;;;;;;;3.50;100.00;98691.53;5137636;27;20154;-60
2023/04/05 09:13:17;;;;;;;1.42;1.30;;;;;;;3.63;100.00;98724.88;5137282;28;20061;-64
2023/04/05 09:15:44;;;;;;;4.60;1.65;;;;;;;3.84;100.00;98781.88;5137833;28;20099;-57
2023/04/05 09:18:10;;;;;;;4.22;1.63;;;;;;;4.01;100.00;98787.94;5137418;27;20051;-61
2023/04/05 09:20:36;;;;;;;2.40;1.48;;;;;;;3.96;100.00;98738.53;5137555;27;20142;-60
2023/04/05 09:23:03;;;;;;;1.27;1.17;;;;;;;4.05;100.00;98793.50;5137051;28;20107;-63
2023/04/05 09:25:37;;;;;;;1.60;1.30;;;;;;;4.26;100.00;98774.50;5137738;27;20047;-62
2023/04/05 09:28:04;;;;;;;1.05;0.93;;;;;;;3.86;100.00;98715.31;5136931;27;20082;-64
2023/04/05 09:30:32;;;;;;;1.20;1.10;;;;;;;4.23;100.00;98720.91;5137212;27;20054;-61
2023/04/05 09:32:58;;;;;;;1.50;1.40;;;;;;;4.33;100.00;98772.06;5137252;28;20108;-62
2023/04/05 09:35:27;;;;;;;3.50;1.73;;;;;;;4.38;100.00;98733.06;5136808;28;20134;-64
2023/04/05 09:37:55;;;;;;;1.20;1.10;;;;;;;4.25;100.00;98705.09;5137118;28;20070;-56
2023/04/05 09:40:22;;;;;;;1.70;1.48;;;;;;;4.16;100.00;98716.00;5136712;28;20047;-59
2023/04/05 09:42:49;;;;;;;2.15;0.90;;;;;;;4.34;100.00;98689.53;5136995;27;20137;-61
2023/04/05 09:45:17;;;;;;;1.23;1.13;;;;;;;4.24;100.00;98609.34;5137723;27;20051;-62
2023/04/05 09:47:54;;;;;;;1.65;1.20;;;;;;;4.00;100.00;98644.53;5140714;28;20405;-67
2023/04/05 09:50:20;;;;;;;1.83;1.45;;;;;;;4.31;100.00;98637.84;5140432;27;20062;-62
2023/04/05 09:52:46;;;;;;;1.27;1.20;;;;;;;4.56;100.00;98625.88;5140819;27;20079;-66
2023/04/05 09:55:13;;;;;;;1.10;1.00;;;;;;;4.45;100.00;98567.75;5140514;28;20332;-63
2023/04/05 09:57:41;;;;;;;0.95;0.95;;;;;;;4.43;100.00;98597.94;5140467;27;20051;-57
2023/04/05 10:00:19;;;;;;;1.30;1.20;;;;;;;4.58;100.00;98611.97;5140270;28;20055;-57
2023/04/05 10:02:46;;;;;;;1.40;1.30;;;;;;;4.39;100.00;98579.94;5140737;27;20047;-60
2023/04/05 10:05:14;;;;;;;1.42;1.33;;;;;;;4.63;100.00;98631.56;5140346;27;20051;-63
2023/04/05 10:07:40;;;;;;;1.58;1.30;;;;;;;4.44;100.00;98593.31;5140530;28;20047;-59
2023/04/05 10:10:08;;;;;;;1.52;1.42;;;;;;;4.49;100.00;98622.94;5140719;28;20054;-65
2023/04/05 10:12:37;;;;;;;2.08;0.95;;;;;;;4.36;100.00;98630.25;5140196;28;20051;-65
2023/04/05 10:15:05;;;;;;;1.58;1.17;;;;;;;4.47;100.00;98663.22;5140783;28;20426;-64
2023/04/05 10:17:38;;;;;;;1.15;1.05;;;;;;;4.41;100.00;98697.13;5140934;27;20047;-62
2023/04/05 10:20:13;;;;;;;1.45;1.35;;;;;;;4.59;100.00;98722.94;5139925;28;20142;-55
2023/04/05 10:22:45;;;;;;;1.98;1.25;;;;;;;4.55;100.00;98776.31;5140140;27;20191;-63
2023/04/05 10:25:23;;;;;;;4.68;1.50;;;;;;;4.55;100.00;98773.59;5140163;27;20443;-61
2023/04/05 10:27:53;;;;;;;3.70;1.38;;;;;;;4.34;100.00;98770.16;5140342;28;20146;-58
2023/04/05 10:30:23;;;;;;;2.13;1.30;;;;;;;4.23;100.00;98739.88;5139954;27;20051;-61
2023/04/05 10:33:03;;;;;;;1.65;1.55;;;;;;;4.35;100.00;98745.38;5140186;28;20054;-63
2023/04/05 10:35:35;;;;;;;4.53;1.73;;;;;;;4.38;100.00;98817.19;5139610;27;20055;-57
2023/04/05 10:38:19;;;;;;;1.55;1.45;;;;;;;4.58;100.00;98840.81;5140022;27;20074;-61
2023/04/05 10:40:47;;;;;;;1.55;1.45;;;;;;;4.51;100.00;98799.06;5139996;27;20146;-61
2023/04/05 10:43:16;;;;;;;2.28;1.30;;;;;;;4.72;100.00;98813.38;5139806;28;20047;-62
2023/04/05 10:45:43;;;;;;;3.47;1.38;;;;;;;4.61;100.00;98761.41;5140014;28;20073;-59
2023/04/05 10:48:28;;;;;;;2.95;1.83;;;;;;;4.37;100.00;98778.41;5139631;27;20149;-63
2023/04/05 10:50:54;;;;;;;2.30;1.60;;;;;;;4.47;100.00;98785.34;5139961;27;20141;-58
2023/04/05 10:53:21;;;;;;;3.72;1.40;;;;;;;4.49;100.00;98778.44;5139539;27;20412;-61
2023/04/05 10:55:49;;;;;;;1.73;1.30;;;;;;;4.34;100.00;98808.94;5139909;27;20051;-59
2023/04/05 10:58:16;;;;;;;5.97;1.77;;;;;;;4.52;100.00;98847.56;5138556;27;20055;-54
2023/04/05 11:00:42;;;;;;;4.05;1.63;;;;;;;4.65;100.00;98849.22;5139516;27;20147;-58
2023/04/05 11:03:09;;;;;;;1.52;1.38;;;;;;;4.70;100.00;98816.44;5139586;27;20047;-58
2023/04/05 11:05:36;;;;;;;1.60;1.50;;;;;;;5.02;100.00;98777.91;5139319;27;20046;-58
2023/04/05 11:08:05;;;;;;;1.55;1.45;;;;;;;5.12;100.00;98737.50;5139679;27;20047;-61
2023/04/05 11:10:35;;;;;;;1.65;1.42;;;;;;;4.84;100.00;98679.56;5139131;27;20086;-58
2023/04/05 11:13:09;;;;;;;1.98;1.50;;;;;;;5.15;100.00;98630.84;5139283;28;20420;-58
2023/04/05 11:15:35;;;;;;;1.42;1.10;;;;;;;5.38;100.00;98605.91;5138883;28;20096;-64
2023/04/05 11:18:03;;;;;;;2.30;1.33;;;;;;;5.32;100.00;98610.78;5139690;28;20290;-57
2023/04/05 11:20:44;;;;;;;2.22;1.50;;;;;;;5.57;100.00;98616.97;5138922;27;20047;-63
2023/04/05 11:23:13;;;;;;;1.65;1.55;;;;;;;5.57;100.00;98578.91;5139347;28;20055;-57
2023/04/05 11:25:40;;;;;;;1.50;1.40;;;;;;;5.25;100.00;98545.34;5139025;27;20047;-57
2023/04/05 11:28:07;;;;;;;2.00;1.52;;;;;;;4.83;100.00;98604.63;5138678;27;20070;-58
2023/04/05 11:30:46;;;;;;;1.60;1.45;;;;;;;4.91;100.00;98682.50;5139073;27;20059;-63
2023/04/05 11:33:35;;;;;;;1.52;1.40;;;;;;;4.69;100.00;98714.38;5139109;28;20043;-58